EZY4EF EGKK-EGJJ
Flight info
| Callsign | EZY4EF |
|---|---|
| Flight time | N/A |
| Altitude | 20000 |
| Route | IMVUR N63 SAM N63 LELNA |
| Aircraft | A320/M-SDE3FGHIRWY/LB1 |
Departure
| Time | N/A |
|---|---|
| Airport | London Gatwick Airport (EGKK) |
Arrival
| Time | 2026-05-05 17:29 |
|---|---|
| Airport | Jersey Airport (EGJJ) |
| Time | Latitude | Longitude | Altitude | Speed | Heading |
|---|---|---|---|---|---|
| 2026-05-05 17:05 | 50.81712 | -1.45554 | 20039 ft | 379 kts | 207° |
| 2026-05-05 17:06 | 50.79352 | -1.47419 | 19996 ft | 379 kts | 207° |
| 2026-05-05 17:06 | 50.76990 | -1.49277 | 19963 ft | 378 kts | 207° |
| 2026-05-05 17:06 | 50.74641 | -1.51128 | 19961 ft | 378 kts | 207° |
| 2026-05-05 17:06 | 50.72329 | -1.52947 | 20597 ft | 366 kts | 207° |
| 2026-05-05 17:07 | 50.70011 | -1.54772 | 20599 ft | 384 kts | 208° |
| 2026-05-05 17:07 | 50.67569 | -1.56702 | 20254 ft | 390 kts | 207° |
| 2026-05-05 17:07 | 50.65211 | -1.58561 | 20085 ft | 377 kts | 207° |
| 2026-05-05 17:07 | 50.62868 | -1.60406 | 19997 ft | 377 kts | 207° |
| 2026-05-05 17:08 | 50.60518 | -1.62267 | 19964 ft | 379 kts | 207° |
| 2026-05-05 17:08 | 50.58160 | -1.64126 | 19949 ft | 380 kts | 207° |
| 2026-05-05 17:08 | 50.55788 | -1.65991 | 19940 ft | 380 kts | 206° |
| 2026-05-05 17:08 | 50.53424 | -1.67847 | 19939 ft | 379 kts | 206° |
| 2026-05-05 17:09 | 50.51065 | -1.69696 | 19939 ft | 379 kts | 206° |
| 2026-05-05 17:09 | 50.48701 | -1.71547 | 19937 ft | 380 kts | 206° |
| 2026-05-05 17:09 | 50.46368 | -1.73373 | 19936 ft | 380 kts | 206° |
| 2026-05-05 17:09 | 50.43996 | -1.75227 | 19933 ft | 380 kts | 206° |
| 2026-05-05 17:10 | 50.41632 | -1.77074 | 19933 ft | 379 kts | 206° |
| 2026-05-05 17:10 | 50.39263 | -1.78924 | 19932 ft | 380 kts | 206° |
| 2026-05-05 17:10 | 50.36885 | -1.80781 | 19932 ft | 383 kts | 206° |
| 2026-05-05 17:10 | 50.34505 | -1.82636 | 19932 ft | 382 kts | 206° |
| 2026-05-05 17:11 | 50.32125 | -1.84488 | 19931 ft | 381 kts | 206° |
| 2026-05-05 17:11 | 50.29755 | -1.86325 | 19931 ft | 381 kts | 206° |
| 2026-05-05 17:11 | 50.27368 | -1.88177 | 19932 ft | 382 kts | 206° |
| 2026-05-05 17:11 | 50.24983 | -1.90025 | 19928 ft | 382 kts | 206° |
| 2026-05-05 17:12 | 50.22634 | -1.91845 | 19928 ft | 381 kts | 206° |
| 2026-05-05 17:12 | 50.20257 | -1.93685 | 19929 ft | 381 kts | 206° |
| 2026-05-05 17:12 | 50.17881 | -1.95522 | 19928 ft | 381 kts | 206° |
| 2026-05-05 17:12 | 50.15498 | -1.97366 | 19929 ft | 384 kts | 206° |
| 2026-05-05 17:13 | 50.13100 | -1.99219 | 19881 ft | 386 kts | 206° |
| 2026-05-05 17:13 | 50.10707 | -2.01064 | 19661 ft | 382 kts | 206° |
| 2026-05-05 17:13 | 50.08333 | -2.02894 | 19095 ft | 380 kts | 206° |
| 2026-05-05 17:13 | 50.05975 | -2.04709 | 18479 ft | 377 kts | 206° |
| 2026-05-05 17:14 | 50.03623 | -2.06518 | 17838 ft | 375 kts | 206° |
| 2026-05-05 17:14 | 50.01279 | -2.08257 | 17195 ft | 371 kts | 202° |
| 2026-05-05 17:14 | 49.98866 | -2.09623 | 16578 ft | 367 kts | 197° |
| 2026-05-05 17:14 | 49.96434 | -2.10771 | 15969 ft | 363 kts | 195° |
| 2026-05-05 17:15 | 49.94010 | -2.11797 | 15626 ft | 361 kts | 194° |
| 2026-05-05 17:15 | 49.91554 | -2.12763 | 15601 ft | 366 kts | 193° |
| 2026-05-05 17:15 | 49.89079 | -2.13690 | 15255 ft | 368 kts | 193° |
| 2026-05-05 17:15 | 49.86614 | -2.14581 | 14685 ft | 358 kts | 192° |
| 2026-05-05 17:16 | 49.84222 | -2.15423 | 14115 ft | 347 kts | 192° |
| 2026-05-05 17:16 | 49.81910 | -2.16224 | 13571 ft | 333 kts | 192° |
| 2026-05-05 17:16 | 49.79688 | -2.16985 | 12945 ft | 321 kts | 192° |
| 2026-05-05 17:16 | 49.77540 | -2.17713 | 12346 ft | 311 kts | 192° |
| 2026-05-05 17:17 | 49.75449 | -2.18419 | 11756 ft | 304 kts | 192° |
| 2026-05-05 17:17 | 49.73421 | -2.19140 | 11182 ft | 302 kts | 193° |
| 2026-05-05 17:17 | 49.71393 | -2.19924 | 10619 ft | 299 kts | 194° |
| 2026-05-05 17:17 | 49.69383 | -2.20741 | 10061 ft | 296 kts | 195° |
| 2026-05-05 17:18 | 49.67409 | -2.21570 | 9458 ft | 292 kts | 195° |
| 2026-05-05 17:18 | 49.65444 | -2.22415 | 8851 ft | 293 kts | 196° |
| 2026-05-05 17:18 | 49.63489 | -2.23270 | 8256 ft | 291 kts | 196° |
| 2026-05-05 17:18 | 49.61543 | -2.24129 | 7661 ft | 290 kts | 196° |
| 2026-05-05 17:19 | 49.59609 | -2.24984 | 7081 ft | 291 kts | 197° |
| 2026-05-05 17:19 | 49.57648 | -2.25848 | 6507 ft | 293 kts | 197° |
| 2026-05-05 17:19 | 49.55697 | -2.26713 | 5914 ft | 291 kts | 197° |
| 2026-05-05 17:19 | 49.53760 | -2.27576 | 5315 ft | 288 kts | 197° |
| 2026-05-05 17:20 | 49.51839 | -2.28438 | 4725 ft | 286 kts | 196° |
| 2026-05-05 17:20 | 49.49937 | -2.29289 | 4130 ft | 283 kts | 196° |
| 2026-05-05 17:20 | 49.48680 | -2.29853 | 3732 ft | 284 kts | 196° |
| 2026-05-05 17:20 | 49.46785 | -2.30702 | 3148 ft | 283 kts | 196° |
| 2026-05-05 17:21 | 49.44901 | -2.31535 | 2564 ft | 279 kts | 196° |
| 2026-05-05 17:21 | 49.43069 | -2.32340 | 2232 ft | 270 kts | 196° |
| 2026-05-05 17:21 | 49.41295 | -2.33115 | 2115 ft | 257 kts | 196° |
| 2026-05-05 17:22 | 49.37981 | -2.34574 | 2037 ft | 243 kts | 197° |
| 2026-05-05 17:22 | 49.36343 | -2.35290 | 2020 ft | 245 kts | 197° |
| 2026-05-05 17:22 | 49.34715 | -2.36014 | 2016 ft | 243 kts | 196° |
| 2026-05-05 17:22 | 49.33087 | -2.36736 | 2016 ft | 244 kts | 196° |
| 2026-05-05 17:23 | 49.31461 | -2.37454 | 2010 ft | 243 kts | 196° |
| 2026-05-05 17:23 | 49.29886 | -2.38147 | 2009 ft | 228 kts | 196° |
| 2026-05-05 17:23 | 49.28391 | -2.38801 | 2019 ft | 223 kts | 196° |
| 2026-05-05 17:23 | 49.26901 | -2.39454 | 2020 ft | 221 kts | 197° |
| 2026-05-05 17:24 | 49.25421 | -2.40108 | 2032 ft | 222 kts | 197° |
| 2026-05-05 17:24 | 49.23952 | -2.40754 | 2028 ft | 222 kts | 196° |
| 2026-05-05 17:24 | 49.22469 | -2.41406 | 2028 ft | 221 kts | 197° |
| 2026-05-05 17:24 | 49.20972 | -2.42061 | 2016 ft | 222 kts | 194° |
| 2026-05-05 17:25 | 49.19441 | -2.42071 | 1986 ft | 221 kts | 161° |
| 2026-05-05 17:25 | 49.18532 | -2.41414 | 1970 ft | 216 kts | 141° |
| 2026-05-05 17:25 | 49.17539 | -2.38936 | 1931 ft | 201 kts | 91° |
| 2026-05-05 17:25 | 49.17803 | -2.37047 | 1908 ft | 170 kts | 57° |
| 2026-05-05 17:26 | 49.18365 | -2.35611 | 1914 ft | 154 kts | 53° |
| 2026-05-05 17:26 | 49.18880 | -2.34178 | 1913 ft | 155 kts | 60° |
| 2026-05-05 17:26 | 49.19274 | -2.32643 | 1917 ft | 156 kts | 65° |
| 2026-05-05 17:26 | 49.19603 | -2.31064 | 1708 ft | 150 kts | 68° |
| 2026-05-05 17:27 | 49.19868 | -2.29581 | 1481 ft | 141 kts | 70° |
| 2026-05-05 17:27 | 49.20073 | -2.28133 | 1285 ft | 139 kts | 74° |
| 2026-05-05 17:27 | 49.20220 | -2.26672 | 1088 ft | 138 kts | 76° |
| 2026-05-05 17:27 | 49.20340 | -2.25195 | 906 ft | 142 kts | 79° |
| 2026-05-05 17:28 | 49.20445 | -2.23745 | 725 ft | 136 kts | 78° |
| 2026-05-05 17:28 | 49.20562 | -2.22304 | 569 ft | 137 kts | 77° |
| 2026-05-05 17:28 | 49.20692 | -2.20841 | 358 ft | 145 kts | 81° |
| 2026-05-05 17:28 | 49.20812 | -2.19371 | 284 ft | 108 kts | 83° |
| 2026-05-05 17:29 | 49.20878 | -2.18615 | 281 ft | 30 kts | 83° |
| 2026-05-05 17:29 | 49.20825 | -2.18390 | 283 ft | 22 kts | 174° |
| 2026-05-05 17:29 | 49.20780 | -2.18410 | 285 ft | 0 kts | 214° |
| 2026-05-05 17:30 | 49.20765 | -2.18427 | 285 ft | 8 kts | 217° |
| 2026-05-05 17:30 | 49.20729 | -2.18549 | 283 ft | 18 kts | 262° |
| 2026-05-05 17:30 | 49.20709 | -2.18794 | 282 ft | 28 kts | 263° |
| 2026-05-05 17:30 | 49.20682 | -2.19114 | 282 ft | 32 kts | 264° |
| 2026-05-05 17:31 | 49.20705 | -2.19455 | 282 ft | 33 kts | 265° |
| 2026-05-05 17:31 | 49.20623 | -2.19717 | 281 ft | 22 kts | 247° |
| 2026-05-05 17:31 | 49.20571 | -2.19753 | 281 ft | 0 kts | 172° |